sensor_id;sensor_type;location;lat;lon;timestamp;temperature;humidity
22986;DHT22;11659;51.092;7.080;2022-09-12T00:00:28;13.60;99.90
22986;DHT22;11659;51.092;7.080;2022-09-12T00:02:57;13.60;99.90
22986;DHT22;11659;51.092;7.080;2022-09-12T00:05:24;13.50;99.90
22986;DHT22;11659;51.092;7.080;2022-09-12T00:07:52;13.50;99.90
22986;DHT22;11659;51.092;7.080;2022-09-12T00:10:18;13.50;99.90
22986;DHT22;11659;51.092;7.080;2022-09-12T00:12:44;13.50;99.90
22986;DHT22;11659;51.092;7.080;2022-09-12T00:15:11;13.50;99.90
22986;DHT22;11659;51.092;7.080;2022-09-12T00:17:37;13.50;99.90
22986;DHT22;11659;51.092;7.080;2022-09-12T00:20:05;13.50;99.90
22986;DHT22;11659;51.092;7.080;2022-09-12T00:22:32;13.50;99.90
22986;DHT22;11659;51.092;7.080;2022-09-12T00:24:59;13.40;99.90
22986;DHT22;11659;51.092;7.080;2022-09-12T00:27:26;13.50;99.90
22986;DHT22;11659;51.092;7.080;2022-09-12T00:29:52;13.40;99.90
22986;DHT22;11659;51.092;7.080;2022-09-12T00:32:19;13.40;99.90
22986;DHT22;11659;51.092;7.080;2022-09-12T00:34:45;13.40;99.90
22986;DHT22;11659;51.092;7.080;2022-09-12T00:37:10;13.40;99.90
22986;DHT22;11659;51.092;7.080;2022-09-12T00:39:37;13.40;99.90
22986;DHT22;11659;51.092;7.080;2022-09-12T00:42:04;13.40;99.90
22986;DHT22;11659;51.092;7.080;2022-09-12T00:44:46;13.40;99.90
22986;DHT22;11659;51.092;7.080;2022-09-12T00:47:16;13.40;99.90
22986;DHT22;11659;51.092;7.080;2022-09-12T00:49:48;13.40;99.90
22986;DHT22;11659;51.092;7.080;2022-09-12T00:52:20;13.40;99.90
22986;DHT22;11659;51.092;7.080;2022-09-12T00:54:50;13.40;99.90
22986;DHT22;11659;51.092;7.080;2022-09-12T00:57:20;13.40;99.90
22986;DHT22;11659;51.092;7.080;2022-09-12T00:59:49;13.40;99.90
22986;DHT22;11659;51.092;7.080;2022-09-12T01:02:16;13.30;99.90
22986;DHT22;11659;51.092;7.080;2022-09-12T01:04:43;13.30;99.90
22986;DHT22;11659;51.092;7.080;2022-09-12T01:07:10;13.30;99.90
22986;DHT22;11659;51.092;7.080;2022-09-12T01:09:37;13.30;99.90
22986;DHT22;11659;51.092;7.080;2022-09-12T01:12:04;13.40;99.90
22986;DHT22;11659;51.092;7.080;2022-09-12T01:14:32;13.30;99.90
22986;DHT22;11659;51.092;7.080;2022-09-12T01:16:59;13.30;99.90
22986;DHT22;11659;51.092;7.080;2022-09-12T01:25:23;13.30;99.90
22986;DHT22;11659;51.092;7.080;2022-09-12T01:28:07;13.30;99.90
22986;DHT22;11659;51.092;7.080;2022-09-12T01:30:44;13.30;99.90
22986;DHT22;11659;51.092;7.080;2022-09-12T01:33:33;13.20;99.90
22986;DHT22;11659;51.092;7.080;2022-09-12T01:36:14;13.20;99.90
22986;DHT22;11659;51.092;7.080;2022-09-12T01:38:47;13.20;99.90
22986;DHT22;11659;51.092;7.080;2022-09-12T01:41:19;13.20;99.90
22986;DHT22;11659;51.092;7.080;2022-09-12T01:43:53;13.20;99.90
22986;DHT22;11659;51.092;7.080;2022-09-12T01:46:29;13.20;99.90
22986;DHT22;11659;51.092;7.080;2022-09-12T01:49:01;13.20;99.90
22986;DHT22;11659;51.092;7.080;2022-09-12T01:51:31;13.20;99.90
22986;DHT22;11659;51.092;7.080;2022-09-12T01:54:05;13.10;99.90
22986;DHT22;11659;51.092;7.080;2022-09-12T01:56:34;13.10;99.90
22986;DHT22;11659;51.092;7.080;2022-09-12T01:59:05;13.10;99.90
22986;DHT22;11659;51.092;7.080;2022-09-12T02:01:39;13.10;99.90
22986;DHT22;11659;51.092;7.080;2022-09-12T02:04:10;13.10;99.90
22986;DHT22;11659;51.092;7.080;2022-09-12T02:06:41;13.10;99.90
22986;DHT22;11659;51.092;7.080;2022-09-12T02:09:12;13.10;99.90
22986;DHT22;11659;51.092;7.080;2022-09-12T02:11:42;13.10;99.90
22986;DHT22;11659;51.092;7.080;2022-09-12T02:14:11;13.10;99.90
22986;DHT22;11659;51.092;7.080;2022-09-12T02:16:42;13.00;99.90
22986;DHT22;11659;51.092;7.080;2022-09-12T02:19:12;13.10;99.90
22986;DHT22;11659;51.092;7.080;2022-09-12T02:21:44;13.00;99.90
22986;DHT22;11659;51.092;7.080;2022-09-12T02:24:13;12.90;99.90
22986;DHT22;11659;51.092;7.080;2022-09-12T02:26:44;13.00;99.90
22986;DHT22;11659;51.092;7.080;2022-09-12T02:29:12;12.90;99.90
22986;DHT22;11659;51.092;7.080;2022-09-12T02:31:44;13.00;99.90
22986;DHT22;11659;51.092;7.080;2022-09-12T02:34:20;13.00;99.90
22986;DHT22;11659;51.092;7.080;2022-09-12T02:37:01;12.90;99.90
22986;DHT22;11659;51.092;7.080;2022-09-12T02:39:30;12.90;99.90
22986;DHT22;11659;51.092;7.080;2022-09-12T02:41:58;12.90;99.90
22986;DHT22;11659;51.092;7.080;2022-09-12T02:44:27;12.90;99.90
22986;DHT22;11659;51.092;7.080;2022-09-12T02:46:57;12.90;99.90
22986;DHT22;11659;51.092;7.080;2022-09-12T02:49:25;12.90;99.90
22986;DHT22;11659;51.092;7.080;2022-09-12T02:51:51;12.90;99.90
22986;DHT22;11659;51.092;7.080;2022-09-12T02:54:17;12.90;99.90
22986;DHT22;11659;51.092;7.080;2022-09-12T02:56:45;12.80;99.90
22986;DHT22;11659;51.092;7.080;2022-09-12T02:59:14;12.80;99.90
22986;DHT22;11659;51.092;7.080;2022-09-12T03:01:57;12.80;99.90
22986;DHT22;11659;51.092;7.080;2022-09-12T03:04:43;12.80;99.90
22986;DHT22;11659;51.092;7.080;2022-09-12T03:07:13;12.80;99.90
22986;DHT22;11659;51.092;7.080;2022-09-12T03:09:45;12.70;99.90
22986;DHT22;11659;51.092;7.080;2022-09-12T03:12:31;12.70;99.90
22986;DHT22;11659;51.092;7.080;2022-09-12T03:18:00;12.80;99.90
22986;DHT22;11659;51.092;7.080;2022-09-12T03:20:40;12.70;99.90
22986;DHT22;11659;51.092;7.080;2022-09-12T03:23:14;12.80;99.90
22986;DHT22;11659;51.092;7.080;2022-09-12T03:25:46;12.70;99.90
22986;DHT22;11659;51.092;7.080;2022-09-12T03:28:15;12.70;99.90
22986;DHT22;11659;51.092;7.080;2022-09-12T03:30:44;12.80;99.90
22986;DHT22;11659;51.092;7.080;2022-09-12T03:33:12;12.70;99.90
22986;DHT22;11659;51.092;7.080;2022-09-12T03:35:40;12.80;99.90
22986;DHT22;11659;51.092;7.080;2022-09-12T03:38:06;12.80;99.90
22986;DHT22;11659;51.092;7.080;2022-09-12T03:40:32;12.80;99.90
22986;DHT22;11659;51.092;7.080;2022-09-12T03:42:58;12.80;99.90
22986;DHT22;11659;51.092;7.080;2022-09-12T03:45:24;12.80;99.90
22986;DHT22;11659;51.092;7.080;2022-09-12T03:47:50;12.70;99.90
22986;DHT22;11659;51.092;7.080;2022-09-12T03:50:18;12.80;99.90
22986;DHT22;11659;51.092;7.080;2022-09-12T03:52:44;12.70;99.90
22986;DHT22;11659;51.092;7.080;2022-09-12T03:55:10;12.70;99.90
22986;DHT22;11659;51.092;7.080;2022-09-12T03:57:36;12.70;99.90
22986;DHT22;11659;51.092;7.080;2022-09-12T04:00:04;12.70;99.90
22986;DHT22;11659;51.092;7.080;2022-09-12T04:02:38;12.70;99.90
22986;DHT22;11659;51.092;7.080;2022-09-12T04:05:04;12.70;99.90
22986;DHT22;11659;51.092;7.080;2022-09-12T04:07:31;12.70;99.90
22986;DHT22;11659;51.092;7.080;2022-09-12T04:09:57;12.70;99.90
22986;DHT22;11659;51.092;7.080;2022-09-12T04:12:23;12.70;99.90
22986;DHT22;11659;51.092;7.080;2022-09-12T04:14:49;12.70;99.90
22986;DHT22;11659;51.092;7.080;2022-09-12T04:17:15;12.70;99.90
22986;DHT22;11659;51.092;7.080;2022-09-12T04:19:41;12.70;99.90
22986;DHT22;11659;51.092;7.080;2022-09-12T04:22:07;12.70;99.90
22986;DHT22;11659;51.092;7.080;2022-09-12T04:24:34;12.70;99.90
22986;DHT22;11659;51.092;7.080;2022-09-12T04:27:00;12.70;99.90
22986;DHT22;11659;51.092;7.080;2022-09-12T04:29:26;12.70;99.90
22986;DHT22;11659;51.092;7.080;2022-09-12T04:31:52;12.70;99.90
22986;DHT22;11659;51.092;7.080;2022-09-12T04:34:18;12.70;99.90
22986;DHT22;11659;51.092;7.080;2022-09-12T04:36:44;12.70;99.90
22986;DHT22;11659;51.092;7.080;2022-09-12T04:39:10;12.70;99.90
22986;DHT22;11659;51.092;7.080;2022-09-12T04:41:39;12.70;99.90
22986;DHT22;11659;51.092;7.080;2022-09-12T04:44:07;12.70;99.90
22986;DHT22;11659;51.092;7.080;2022-09-12T04:46:37;12.70;99.90
22986;DHT22;11659;51.092;7.080;2022-09-12T04:49:04;12.70;99.90
22986;DHT22;11659;51.092;7.080;2022-09-12T04:51:31;12.80;99.90
22986;DHT22;11659;51.092;7.080;2022-09-12T04:54:00;12.70;99.90
22986;DHT22;11659;51.092;7.080;2022-09-12T04:56:26;12.70;99.90
22986;DHT22;11659;51.092;7.080;2022-09-12T04:58:55;12.70;99.90
22986;DHT22;11659;51.092;7.080;2022-09-12T05:01:22;12.70;99.90
22986;DHT22;11659;51.092;7.080;2022-09-12T05:03:49;12.70;99.90
22986;DHT22;11659;51.092;7.080;2022-09-12T05:06:17;12.70;99.90
22986;DHT22;11659;51.092;7.080;2022-09-12T05:08:43;12.70;99.90
22986;DHT22;11659;51.092;7.080;2022-09-12T05:11:12;12.70;99.90
22986;DHT22;11659;51.092;7.080;2022-09-12T05:13:38;12.70;99.90
22986;DHT22;11659;51.092;7.080;2022-09-12T05:16:07;12.70;99.90
22986;DHT22;11659;51.092;7.080;2022-09-12T05:18:35;12.70;99.90
22986;DHT22;11659;51.092;7.080;2022-09-12T05:21:02;12.70;99.90
22986;DHT22;11659;51.092;7.080;2022-09-12T05:23:29;12.80;99.90
22986;DHT22;11659;51.092;7.080;2022-09-12T05:25:56;12.70;99.90
22986;DHT22;11659;51.092;7.080;2022-09-12T05:28:23;12.70;99.90
22986;DHT22;11659;51.092;7.080;2022-09-12T05:30:59;12.80;99.90
22986;DHT22;11659;51.092;7.080;2022-09-12T05:33:26;12.80;99.90
22986;DHT22;11659;51.092;7.080;2022-09-12T05:35:52;12.80;99.90
22986;DHT22;11659;51.092;7.080;2022-09-12T05:38:18;12.90;99.90
22986;DHT22;11659;51.092;7.080;2022-09-12T05:40:44;12.80;99.90
22986;DHT22;11659;51.092;7.080;2022-09-12T05:43:10;12.90;99.90
22986;DHT22;11659;51.092;7.080;2022-09-12T05:45:39;12.90;99.90
22986;DHT22;11659;51.092;7.080;2022-09-12T05:50:51;13.00;99.90
22986;DHT22;11659;51.092;7.080;2022-09-12T05:53:17;13.00;99.90
22986;DHT22;11659;51.092;7.080;2022-09-12T05:55:44;13.00;99.90
22986;DHT22;11659;51.092;7.080;2022-09-12T05:58:10;13.10;99.90
22986;DHT22;11659;51.092;7.080;2022-09-12T06:00:36;13.10;99.90
22986;DHT22;11659;51.092;7.080;2022-09-12T06:03:02;13.20;99.90
22986;DHT22;11659;51.092;7.080;2022-09-12T06:05:28;13.20;99.90
22986;DHT22;11659;51.092;7.080;2022-09-12T06:07:55;13.30;99.90
22986;DHT22;11659;51.092;7.080;2022-09-12T06:10:21;13.40;99.90
22986;DHT22;11659;51.092;7.080;2022-09-12T06:12:47;13.40;99.90
22986;DHT22;11659;51.092;7.080;2022-09-12T06:15:13;13.50;99.90
22986;DHT22;11659;51.092;7.080;2022-09-12T06:17:41;13.60;99.90
22986;DHT22;11659;51.092;7.080;2022-09-12T06:20:07;13.70;99.90
22986;DHT22;11659;51.092;7.080;2022-09-12T06:22:33;13.70;99.90
22986;DHT22;11659;51.092;7.080;2022-09-12T06:25:00;13.80;99.90
22986;DHT22;11659;51.092;7.080;2022-09-12T06:27:26;13.80;99.90
22986;DHT22;11659;51.092;7.080;2022-09-12T06:29:52;13.90;99.90
22986;DHT22;11659;51.092;7.080;2022-09-12T06:32:18;14.00;99.90
22986;DHT22;11659;51.092;7.080;2022-09-12T06:34:44;14.00;99.90
22986;DHT22;11659;51.092;7.080;2022-09-12T06:37:13;14.10;99.90
22986;DHT22;11659;51.092;7.080;2022-09-12T06:39:39;14.20;99.90
22986;DHT22;11659;51.092;7.080;2022-09-12T06:42:06;14.20;99.90
22986;DHT22;11659;51.092;7.080;2022-09-12T06:44:34;14.30;99.90
22986;DHT22;11659;51.092;7.080;2022-09-12T06:47:00;14.40;99.90
22986;DHT22;11659;51.092;7.080;2022-09-12T06:49:26;14.40;99.90
22986;DHT22;11659;51.092;7.080;2022-09-12T06:51:52;14.50;99.90
22986;DHT22;11659;51.092;7.080;2022-09-12T06:54:18;14.60;99.90
22986;DHT22;11659;51.092;7.080;2022-09-12T06:56:44;14.60;99.90
22986;DHT22;11659;51.092;7.080;2022-09-12T06:59:12;14.70;99.90
22986;DHT22;11659;51.092;7.080;2022-09-12T07:01:38;14.80;99.90
22986;DHT22;11659;51.092;7.080;2022-09-12T07:04:04;14.90;99.90
22986;DHT22;11659;51.092;7.080;2022-09-12T07:06:35;15.00;99.90
22986;DHT22;11659;51.092;7.080;2022-09-12T07:09:03;15.10;99.90
22986;DHT22;11659;51.092;7.080;2022-09-12T07:11:31;15.20;99.90
22986;DHT22;11659;51.092;7.080;2022-09-12T07:14:00;15.30;99.90
22986;DHT22;11659;51.092;7.080;2022-09-12T07:16:27;15.30;99.90
22986;DHT22;11659;51.092;7.080;2022-09-12T07:18:55;15.40;99.90
22986;DHT22;11659;51.092;7.080;2022-09-12T07:21:21;15.50;99.90
22986;DHT22;11659;51.092;7.080;2022-09-12T07:23:48;15.60;99.90
22986;DHT22;11659;51.092;7.080;2022-09-12T07:26:16;15.70;99.90
22986;DHT22;11659;51.092;7.080;2022-09-12T07:28:43;15.80;99.90
22986;DHT22;11659;51.092;7.080;2022-09-12T07:31:10;15.90;99.90
22986;DHT22;11659;51.092;7.080;2022-09-12T07:33:38;16.00;99.90
22986;DHT22;11659;51.092;7.080;2022-09-12T07:36:07;16.10;99.90
22986;DHT22;11659;51.092;7.080;2022-09-12T07:38:35;16.20;99.90
22986;DHT22;11659;51.092;7.080;2022-09-12T07:41:09;16.20;99.90
22986;DHT22;11659;51.092;7.080;2022-09-12T07:43:35;16.30;99.90
22986;DHT22;11659;51.092;7.080;2022-09-12T07:46:01;16.40;99.90
22986;DHT22;11659;51.092;7.080;2022-09-12T07:48:27;16.50;99.90
22986;DHT22;11659;51.092;7.080;2022-09-12T07:50:58;16.60;99.90
22986;DHT22;11659;51.092;7.080;2022-09-12T07:53:24;16.60;99.90
22986;DHT22;11659;51.092;7.080;2022-09-12T07:55:52;16.70;99.90
22986;DHT22;11659;51.092;7.080;2022-09-12T07:58:19;16.80;99.90
22986;DHT22;11659;51.092;7.080;2022-09-12T08:00:45;16.80;99.90
22986;DHT22;11659;51.092;7.080;2022-09-12T08:03:10;16.90;99.90
22986;DHT22;11659;51.092;7.080;2022-09-12T08:05:36;16.90;99.90
22986;DHT22;11659;51.092;7.080;2022-09-12T08:08:04;17.00;99.90
22986;DHT22;11659;51.092;7.080;2022-09-12T08:10:30;17.00;99.90
22986;DHT22;11659;51.092;7.080;2022-09-12T08:12:57;17.10;99.90
22986;DHT22;11659;51.092;7.080;2022-09-12T08:15:23;17.20;99.90
22986;DHT22;11659;51.092;7.080;2022-09-12T08:17:49;17.30;99.90
22986;DHT22;11659;51.092;7.080;2022-09-12T08:20:15;17.40;99.90
22986;DHT22;11659;51.092;7.080;2022-09-12T08:22:42;17.40;99.90
22986;DHT22;11659;51.092;7.080;2022-09-12T08:25:10;17.50;99.90
22986;DHT22;11659;51.092;7.080;2022-09-12T08:27:36;17.50;99.90
22986;DHT22;11659;51.092;7.080;2022-09-12T08:30:02;17.50;99.90
22986;DHT22;11659;51.092;7.080;2022-09-12T08:32:29;17.60;99.90
22986;DHT22;11659;51.092;7.080;2022-09-12T08:34:55;17.60;99.90
22986;DHT22;11659;51.092;7.080;2022-09-12T08:37:20;17.60;99.90
22986;DHT22;11659;51.092;7.080;2022-09-12T08:39:47;17.60;99.90
22986;DHT22;11659;51.092;7.080;2022-09-12T08:42:24;17.70;99.90
22986;DHT22;11659;51.092;7.080;2022-09-12T08:45:04;17.70;99.90
22986;DHT22;11659;51.092;7.080;2022-09-12T08:47:36;17.80;99.90
22986;DHT22;11659;51.092;7.080;2022-09-12T08:50:11;17.90;99.90
22986;DHT22;11659;51.092;7.080;2022-09-12T08:52:46;17.90;99.90
22986;DHT22;11659;51.092;7.080;2022-09-12T08:55:24;18.10;99.90
22986;DHT22;11659;51.092;7.080;2022-09-12T08:57:52;18.20;99.90
22986;DHT22;11659;51.092;7.080;2022-09-12T09:00:19;18.20;99.90
22986;DHT22;11659;51.092;7.080;2022-09-12T09:03:16;18.30;99.90
22986;DHT22;11659;51.092;7.080;2022-09-12T09:05:48;18.30;99.90
22986;DHT22;11659;51.092;7.080;2022-09-12T09:08:29;18.40;99.90
22986;DHT22;11659;51.092;7.080;2022-09-12T09:11:03;18.50;99.90
22986;DHT22;11659;51.092;7.080;2022-09-12T09:13:42;18.60;99.90
22986;DHT22;11659;51.092;7.080;2022-09-12T09:16:31;18.70;99.90
22986;DHT22;11659;51.092;7.080;2022-09-12T09:19:03;18.80;99.90
22986;DHT22;11659;51.092;7.080;2022-09-12T09:21:32;19.00;99.90
22986;DHT22;11659;51.092;7.080;2022-09-12T09:24:03;19.10;99.90
22986;DHT22;11659;51.092;7.080;2022-09-12T09:26:39;19.20;99.90
22986;DHT22;11659;51.092;7.080;2022-09-12T09:29:14;19.40;99.90
22986;DHT22;11659;51.092;7.080;2022-09-12T09:31:41;19.50;99.90
22986;DHT22;11659;51.092;7.080;2022-09-12T09:34:13;19.60;99.90
22986;DHT22;11659;51.092;7.080;2022-09-12T09:36:48;19.80;99.90
22986;DHT22;11659;51.092;7.080;2022-09-12T09:39:28;19.90;99.90
22986;DHT22;11659;51.092;7.080;2022-09-12T09:42:10;20.00;99.90
22986;DHT22;11659;51.092;7.080;2022-09-12T09:44:39;20.10;99.90
22986;DHT22;11659;51.092;7.080;2022-09-12T09:47:07;20.20;99.90
22986;DHT22;11659;51.092;7.080;2022-09-12T09:49:35;20.30;99.90
22986;DHT22;11659;51.092;7.080;2022-09-12T09:52:03;20.30;99.90
22986;DHT22;11659;51.092;7.080;2022-09-12T09:54:34;20.40;99.90
22986;DHT22;11659;51.092;7.080;2022-09-12T09:57:01;20.50;99.90
22986;DHT22;11659;51.092;7.080;2022-09-12T09:59:28;20.60;99.90
22986;DHT22;11659;51.092;7.080;2022-09-12T10:01:57;20.60;99.90
22986;DHT22;11659;51.092;7.080;2022-09-12T10:04:29;20.70;99.90
22986;DHT22;11659;51.092;7.080;2022-09-12T10:06:57;20.90;99.90
22986;DHT22;11659;51.092;7.080;2022-09-12T10:09:25;21.00;99.90
22986;DHT22;11659;51.092;7.080;2022-09-12T10:11:52;21.00;99.90
22986;DHT22;11659;51.092;7.080;2022-09-12T10:14:34;21.10;99.90
22986;DHT22;11659;51.092;7.080;2022-09-12T10:17:21;21.10;99.90
22986;DHT22;11659;51.092;7.080;2022-09-12T10:19:48;21.20;99.90
22986;DHT22;11659;51.092;7.080;2022-09-12T10:22:17;21.20;99.90
22986;DHT22;11659;51.092;7.080;2022-09-12T10:24:47;21.30;99.90
22986;DHT22;11659;51.092;7.080;2022-09-12T10:27:17;21.40;99.90
22986;DHT22;11659;51.092;7.080;2022-09-12T10:29:46;21.40;99.90
22986;DHT22;11659;51.092;7.080;2022-09-12T10:32:22;21.40;99.90
22986;DHT22;11659;51.092;7.080;2022-09-12T10:34:52;21.50;99.90
22986;DHT22;11659;51.092;7.080;2022-09-12T10:37:23;21.60;99.90
22986;DHT22;11659;51.092;7.080;2022-09-12T10:39:52;21.60;99.90
22986;DHT22;11659;51.092;7.080;2022-09-12T10:42:41;21.70;99.90
22986;DHT22;11659;51.092;7.080;2022-09-12T10:45:17;21.80;99.90
22986;DHT22;11659;51.092;7.080;2022-09-12T10:47:45;21.80;99.90
22986;DHT22;11659;51.092;7.080;2022-09-12T10:50:20;21.90;99.90
22986;DHT22;11659;51.092;7.080;2022-09-12T10:52:46;21.90;99.90
22986;DHT22;11659;51.092;7.080;2022-09-12T10:55:14;22.00;99.90
22986;DHT22;11659;51.092;7.080;2022-09-12T11:00:39;22.10;99.90
22986;DHT22;11659;51.092;7.080;2022-09-12T11:03:15;22.20;99.90
22986;DHT22;11659;51.092;7.080;2022-09-12T11:05:52;22.30;99.90
22986;DHT22;11659;51.092;7.080;2022-09-12T11:08:38;22.40;99.90
22986;DHT22;11659;51.092;7.080;2022-09-12T11:11:10;22.60;99.90
22986;DHT22;11659;51.092;7.080;2022-09-12T11:13:50;22.70;99.80
22986;DHT22;11659;51.092;7.080;2022-09-12T11:16:24;23.00;99.40
22986;DHT22;11659;51.092;7.080;2022-09-12T11:19:32;23.10;98.80
22986;DHT22;11659;51.092;7.080;2022-09-12T11:22:15;23.30;98.80
22986;DHT22;11659;51.092;7.080;2022-09-12T11:24:59;23.40;98.70
22986;DHT22;11659;51.092;7.080;2022-09-12T11:27:38;23.60;98.20
22986;DHT22;11659;51.092;7.080;2022-09-12T11:30:11;23.70;97.80
22986;DHT22;11659;51.092;7.080;2022-09-12T11:32:54;23.70;97.70
22986;DHT22;11659;51.092;7.080;2022-09-12T11:35:27;23.90;97.80
22986;DHT22;11659;51.092;7.080;2022-09-12T11:40:59;24.30;97.20
22986;DHT22;11659;51.092;7.080;2022-09-12T11:43:32;24.50;96.90
22986;DHT22;11659;51.092;7.080;2022-09-12T11:46:07;24.80;96.40
22986;DHT22;11659;51.092;7.080;2022-09-12T11:48:41;24.90;95.80
22986;DHT22;11659;51.092;7.080;2022-09-12T11:51:16;25.10;95.10
22986;DHT22;11659;51.092;7.080;2022-09-12T11:53:45;25.20;94.70
22986;DHT22;11659;51.092;7.080;2022-09-12T11:56:16;25.40;94.50
22986;DHT22;11659;51.092;7.080;2022-09-12T11:58:45;25.40;94.30
22986;DHT22;11659;51.092;7.080;2022-09-12T12:01:17;25.50;93.70
22986;DHT22;11659;51.092;7.080;2022-09-12T12:03:46;25.60;93.60
22986;DHT22;11659;51.092;7.080;2022-09-12T12:06:16;25.70;93.60
22986;DHT22;11659;51.092;7.080;2022-09-12T12:08:47;25.80;92.90
22986;DHT22;11659;51.092;7.080;2022-09-12T12:11:14;25.90;93.10
22986;DHT22;11659;51.092;7.080;2022-09-12T12:13:46;26.20;93.30
22986;DHT22;11659;51.092;7.080;2022-09-12T12:16:15;26.40;92.90
22986;DHT22;11659;51.092;7.080;2022-09-12T12:18:44;26.60;92.10
22986;DHT22;11659;51.092;7.080;2022-09-12T12:21:37;26.70;91.30
22986;DHT22;11659;51.092;7.080;2022-09-12T12:24:15;26.80;91.20
22986;DHT22;11659;51.092;7.080;2022-09-12T12:26:45;27.10;90.80
22986;DHT22;11659;51.092;7.080;2022-09-12T12:29:40;27.10;91.10
22986;DHT22;11659;51.092;7.080;2022-09-12T12:32:21;27.30;90.70
22986;DHT22;11659;51.092;7.080;2022-09-12T12:34:47;27.50;90.40
22986;DHT22;11659;51.092;7.080;2022-09-12T12:37:49;27.70;89.20
22986;DHT22;11659;51.092;7.080;2022-09-12T12:40:22;27.80;88.90
22986;DHT22;11659;51.092;7.080;2022-09-12T12:43:02;28.00;87.80
22986;DHT22;11659;51.092;7.080;2022-09-12T12:51:32;28.10;86.70
22986;DHT22;11659;51.092;7.080;2022-09-12T12:54:02;28.00;85.10
22986;DHT22;11659;51.092;7.080;2022-09-12T12:56:39;27.70;84.50
22986;DHT22;11659;51.092;7.080;2022-09-12T12:59:15;27.50;85.10
22986;DHT22;11659;51.092;7.080;2022-09-12T13:01:45;27.30;85.50
22986;DHT22;11659;51.092;7.080;2022-09-12T13:04:15;27.10;86.30
22986;DHT22;11659;51.092;7.080;2022-09-12T13:06:43;26.90;85.40
22986;DHT22;11659;51.092;7.080;2022-09-12T13:09:19;26.70;85.90
22986;DHT22;11659;51.092;7.080;2022-09-12T13:11:55;26.60;86.70
22986;DHT22;11659;51.092;7.080;2022-09-12T13:14:47;26.40;87.10
22986;DHT22;11659;51.092;7.080;2022-09-12T13:17:27;26.30;86.50
22986;DHT22;11659;51.092;7.080;2022-09-12T13:22:48;26.00;86.30
22986;DHT22;11659;51.092;7.080;2022-09-12T13:25:28;25.90;87.50
22986;DHT22;11659;51.092;7.080;2022-09-12T13:27:59;25.80;87.10
22986;DHT22;11659;51.092;7.080;2022-09-12T13:30:25;25.70;87.10
22986;DHT22;11659;51.092;7.080;2022-09-12T13:32:52;25.60;87.10
22986;DHT22;11659;51.092;7.080;2022-09-12T13:35:23;25.50;87.50
22986;DHT22;11659;51.092;7.080;2022-09-12T13:37:56;25.50;87.60
22986;DHT22;11659;51.092;7.080;2022-09-12T13:40:30;25.40;87.70
22986;DHT22;11659;51.092;7.080;2022-09-12T13:43:10;25.40;87.60
22986;DHT22;11659;51.092;7.080;2022-09-12T13:45:37;25.30;87.20
22986;DHT22;11659;51.092;7.080;2022-09-12T13:48:05;25.30;87.50
22986;DHT22;11659;51.092;7.080;2022-09-12T13:50:38;25.30;88.00
22986;DHT22;11659;51.092;7.080;2022-09-12T13:53:08;25.20;87.80
22986;DHT22;11659;51.092;7.080;2022-09-12T13:55:39;25.30;87.40
22986;DHT22;11659;51.092;7.080;2022-09-12T13:58:15;25.20;87.50
22986;DHT22;11659;51.092;7.080;2022-09-12T14:00:41;25.20;87.50
22986;DHT22;11659;51.092;7.080;2022-09-12T14:03:24;25.20;87.80
22986;DHT22;11659;51.092;7.080;2022-09-12T14:06:09;25.20;87.50
22986;DHT22;11659;51.092;7.080;2022-09-12T14:08:38;25.20;87.70
22986;DHT22;11659;51.092;7.080;2022-09-12T14:11:09;25.20;87.80
22986;DHT22;11659;51.092;7.080;2022-09-12T14:13:35;25.20;87.80
22986;DHT22;11659;51.092;7.080;2022-09-12T14:16:04;25.10;87.80
22986;DHT22;11659;51.092;7.080;2022-09-12T14:18:36;25.10;88.30
22986;DHT22;11659;51.092;7.080;2022-09-12T14:21:08;25.10;89.00
22986;DHT22;11659;51.092;7.080;2022-09-12T14:23:37;25.10;89.10
22986;DHT22;11659;51.092;7.080;2022-09-12T14:26:10;25.20;88.90
22986;DHT22;11659;51.092;7.080;2022-09-12T14:28:39;25.20;88.30
22986;DHT22;11659;51.092;7.080;2022-09-12T14:31:08;25.20;88.00
22986;DHT22;11659;51.092;7.080;2022-09-12T14:33:46;25.10;88.00
22986;DHT22;11659;51.092;7.080;2022-09-12T14:36:24;25.10;88.30
22986;DHT22;11659;51.092;7.080;2022-09-12T14:38:54;25.10;87.60
22986;DHT22;11659;51.092;7.080;2022-09-12T14:41:25;25.00;87.60
22986;DHT22;11659;51.092;7.080;2022-09-12T14:43:54;24.90;87.90
22986;DHT22;11659;51.092;7.080;2022-09-12T14:46:23;24.90;88.30
22986;DHT22;11659;51.092;7.080;2022-09-12T14:48:53;24.90;87.70
22986;DHT22;11659;51.092;7.080;2022-09-12T14:51:22;24.90;87.80
22986;DHT22;11659;51.092;7.080;2022-09-12T14:53:49;24.90;88.20
22986;DHT22;11659;51.092;7.080;2022-09-12T14:56:16;24.90;88.70
22986;DHT22;11659;51.092;7.080;2022-09-12T14:58:46;24.90;88.80
22986;DHT22;11659;51.092;7.080;2022-09-12T15:01:23;24.90;88.60
22986;DHT22;11659;51.092;7.080;2022-09-12T15:03:51;24.90;89.10
22986;DHT22;11659;51.092;7.080;2022-09-12T15:06:21;24.80;88.40
22986;DHT22;11659;51.092;7.080;2022-09-12T15:08:48;24.80;88.70
22986;DHT22;11659;51.092;7.080;2022-09-12T15:11:14;24.80;89.50
22986;DHT22;11659;51.092;7.080;2022-09-12T15:13:40;24.70;89.70
22986;DHT22;11659;51.092;7.080;2022-09-12T15:16:09;24.70;89.50
22986;DHT22;11659;51.092;7.080;2022-09-12T15:18:36;24.70;89.50
22986;DHT22;11659;51.092;7.080;2022-09-12T15:21:04;24.70;89.60
22986;DHT22;11659;51.092;7.080;2022-09-12T15:23:33;24.70;89.80
22986;DHT22;11659;51.092;7.080;2022-09-12T15:26:00;24.80;89.80
22986;DHT22;11659;51.092;7.080;2022-09-12T15:28:28;24.70;89.40
22986;DHT22;11659;51.092;7.080;2022-09-12T15:30:55;24.70;89.30
22986;DHT22;11659;51.092;7.080;2022-09-12T15:33:24;24.60;89.30
22986;DHT22;11659;51.092;7.080;2022-09-12T15:35:50;24.60;89.80
22986;DHT22;11659;51.092;7.080;2022-09-12T15:38:17;24.60;90.20
22986;DHT22;11659;51.092;7.080;2022-09-12T15:40:43;24.50;90.30
22986;DHT22;11659;51.092;7.080;2022-09-12T15:43:11;24.50;90.50
22986;DHT22;11659;51.092;7.080;2022-09-12T15:45:38;24.40;90.40
22986;DHT22;11659;51.092;7.080;2022-09-12T15:48:04;24.30;90.60
22986;DHT22;11659;51.092;7.080;2022-09-12T15:50:31;24.30;90.70
22986;DHT22;11659;51.092;7.080;2022-09-12T15:52:58;24.20;90.90
22986;DHT22;11659;51.092;7.080;2022-09-12T15:55:26;24.20;91.20
22986;DHT22;11659;51.092;7.080;2022-09-12T15:57:52;24.10;91.00
22986;DHT22;11659;51.092;7.080;2022-09-12T16:00:18;24.10;91.00
22986;DHT22;11659;51.092;7.080;2022-09-12T16:02:48;24.10;91.00
22986;DHT22;11659;51.092;7.080;2022-09-12T16:05:16;24.10;91.10
22986;DHT22;11659;51.092;7.080;2022-09-12T16:07:44;24.10;91.20
22986;DHT22;11659;51.092;7.080;2022-09-12T16:10:14;24.00;91.20
22986;DHT22;11659;51.092;7.080;2022-09-12T16:12:41;23.90;91.40
22986;DHT22;11659;51.092;7.080;2022-09-12T16:15:11;23.90;91.40